AirNav   TITAN Aviation Fuels
 
 965 users online  

AZ47 Lapaz Regional Hospital Heliport
Parker, Arizona, USA

GOING TO PARKER?


FAA INFORMATION EFFECTIVE 08 SEPTEMBER 2022

Location

FAA Identifier: AZ47
Lat/Long: 34-08-13.3300N 114-17-05.7200W
34-08.222167N 114-17.095333W
34.1370361,-114.2849222
(estimated)
Elevation: 450 ft. / 137 m (estimated)
Variation: 13E (1985)
From city: 1 mile S of PARKER, AZ
Time zone: UTC -7 (year round; does not observe DST)
Zip code: 85344

Heliport Operations

Heliport use: Private use, MEDICAL.
Activation date: 07/1982
Control tower: no
ARTCC: LOS ANGELES CENTER
FSS: PRESCOTT FLIGHT SERVICE STATION
Attendance: CONTINUOUS
Wind indicator: yes
Segmented circle: no
Lights: SS-SR

Heliport Communications

WX AWOS-3PT at P20 (1.1 nm NE): 132.75 (928-669-2160)

Nearby radio navigation aids

VOR radial/distance  VOR name  Freq  Var
PKEr069/19.8PARKER VORTAC117.9015E
EEDr151/38.9NEEDLES VORTAC115.2015E

Heliport Services

Runway Information

Helipad H1

Dimensions: 40 x 40 ft. / 12 x 12 m
Surface: concrete
Runway edge lights: low intensity
Latitude: 34-08.222167N
Longitude: 114-17.095333W
Elevation: 450.0 ft.
Traffic pattern: leftleft

Heliport Ownership and Management from official FAA records

Ownership: Publicly-owned
Owner: LA PAZ REGIONAL HOSPITAL
1200 W. MOHAVE RD.
PARKER, AZ 85344
Phone 928-669-9201
Manager: M. VICTORIA CLARK, CEO
1200 W. MOHAVE RD
PARKER, AZ 85344
Phone 928-669-9201

Additional Remarks

A52-H1 35' ANT 100' EAST.
FOR CD CTC LOS ANGELES ARTCC AT 661-575-2079.

Instrument Procedures

There are no published instrument procedures at AZ47.

Some nearby airports with instrument procedures:

P20 - Avi Suquilla Airport (1 nm NE)
KHII - Lake Havasu City Airport (26 nm N)
KBLH - Blythe Airport (38 nm SW)
KEED - Needles Airport (41 nm NW)
KIFP - Laughlin/Bullhead International Airport (63 nm N)
 
Loc | Ops | Rwys | IFR | FBO | Links
Com | Nav | Svcs | Stats | Notes
Area around AZ47 (Lapaz Regional Hospital Heliport)
 
Road maps at: MapQuest Bing Google
 
Aerial photo
No photo
 
Sectional chart

 
Airport distance calculator
Flying to Lapaz Regional Hospital Heliport? Find the distance to fly.

From to AZ47

Sunrise and sunset
Times for 02-Oct-2022
 Local
(UTC-7)
 Zulu
(UTC)
Morning civil twilight06:0813:08
Sunrise06:3313:33
Sunset18:2001:20
Evening civil twilight18:4501:45

Current date and time
Zulu (UTC)  02-Oct-2022 22:31:48
Local (UTC-7)  02-Oct-2022 15:31:48
 
METAR
KHII 
26nm N 
022215Z AUTO 19005KT 10SM CLR 36/13 A2981 RMK AO2
KBLH 
38nm SW 
022152Z AUTO 10003KT 10SM FEW120 35/17 A2980 RMK AO2 SLP083 T03500167 TSNO
KEED 
41nm NW 
022156Z AUTO 21010G19KT 10SM CLR 36/13 A2982 RMK AO2 SLP063 T03560133
TAF
KBLH 
38nm SW 
021720Z 0218/0318 18008KT P6SM FEW100 FEW250
KEED 
41nm NW 
021720Z 0218/0318 16006KT P6SM SKC FM022000 19010G16KT P6SM FEW120 FM030200 22007KT P6SM SKC FM030700 VRB05KT P6SM SKC
NOTAMs
Click for the latest NOTAMs
NOTAMs are issued by the DoD/FAA and will open in a separate window not controlled by AirNav.

 

 
 

Would you like to see your business listed on this page?

 If your business provides an interesting product or service to pilots, flight crews, aircraft, or users of the Lapaz Regional Hospital Heliport, you should consider listing it here.  To start the listing process, click on the button below
 
Add a business
 

Other Pages about Lapaz Regional Hospital Heliport

Update a link
 
Copyright © AirNav, LLC. All rights reserved. Privacy Policy  Contact